sensor_id;sensor_type;location;lat;lon;timestamp;temperature;humidity
34008;DHT22;41085;51.594;7.138;2023-02-26T00:03:34;17.10;98.40
34008;DHT22;41085;51.594;7.138;2023-02-26T00:07:36;16.80;98.30
34008;DHT22;41085;51.594;7.138;2023-02-26T00:11:39;17.10;97.90
34008;DHT22;41085;51.594;7.138;2023-02-26T00:15:41;17.00;96.00
34008;DHT22;41085;51.594;7.138;2023-02-26T00:19:43;16.40;97.10
34008;DHT22;41085;51.594;7.138;2023-02-26T00:23:51;15.80;97.90
34008;DHT22;41085;51.594;7.138;2023-02-26T00:27:52;16.70;97.20
34008;DHT22;41085;51.594;7.138;2023-02-26T00:41:39;16.30;95.60
34008;DHT22;41085;51.594;7.138;2023-02-26T00:45:50;16.70;97.20
34008;DHT22;41085;51.594;7.138;2023-02-26T00:50:15;16.30;95.40
34008;DHT22;41085;51.594;7.138;2023-02-26T00:54:22;16.70;97.70
34008;DHT22;41085;51.594;7.138;2023-02-26T00:58:23;16.60;96.90
34008;DHT22;41085;51.594;7.138;2023-02-26T01:02:24;17.50;97.30
34008;DHT22;41085;51.594;7.138;2023-02-26T01:06:27;16.40;96.60
34008;DHT22;41085;51.594;7.138;2023-02-26T01:10:35;16.30;96.80
34008;DHT22;41085;51.594;7.138;2023-02-26T01:14:35;16.30;97.10
34008;DHT22;41085;51.594;7.138;2023-02-26T01:18:41;16.80;97.10
34008;DHT22;41085;51.594;7.138;2023-02-26T01:26:59;16.20;95.50
34008;DHT22;41085;51.594;7.138;2023-02-26T01:31:02;16.70;98.00
34008;DHT22;41085;51.594;7.138;2023-02-26T01:39:27;16.50;97.10
34008;DHT22;41085;51.594;7.138;2023-02-26T01:43:59;16.20;97.00
34008;DHT22;41085;51.594;7.138;2023-02-26T01:48:05;16.30;95.70
34008;DHT22;41085;51.594;7.138;2023-02-26T01:56:31;15.50;95.60
34008;DHT22;41085;51.594;7.138;2023-02-26T02:00:32;17.00;98.60
34008;DHT22;41085;51.594;7.138;2023-02-26T02:04:33;16.70;97.60
34008;DHT22;41085;51.594;7.138;2023-02-26T02:08:35;16.20;97.00
34008;DHT22;41085;51.594;7.138;2023-02-26T02:21:28;16.40;96.00
34008;DHT22;41085;51.594;7.138;2023-02-26T02:26:06;17.10;97.60
34008;DHT22;41085;51.594;7.138;2023-02-26T02:30:22;16.20;95.90
34008;DHT22;41085;51.594;7.138;2023-02-26T02:34:53;16.50;97.30
34008;DHT22;41085;51.594;7.138;2023-02-26T02:39:02;16.70;96.10
34008;DHT22;41085;51.594;7.138;2023-02-26T02:43:13;17.20;97.50
34008;DHT22;41085;51.594;7.138;2023-02-26T02:47:15;16.70;97.40
34008;DHT22;41085;51.594;7.138;2023-02-26T02:51:43;16.30;97.20
34008;DHT22;41085;51.594;7.138;2023-02-26T02:55:49;16.60;97.40
34008;DHT22;41085;51.594;7.138;2023-02-26T03:00:04;16.10;95.90
34008;DHT22;41085;51.594;7.138;2023-02-26T03:04:09;16.30;96.20
34008;DHT22;41085;51.594;7.138;2023-02-26T03:08:27;16.10;96.20
34008;DHT22;41085;51.594;7.138;2023-02-26T03:12:35;16.40;97.30
34008;DHT22;41085;51.594;7.138;2023-02-26T03:16:51;17.20;97.50
34008;DHT22;41085;51.594;7.138;2023-02-26T03:21:50;16.20;95.90
34008;DHT22;41085;51.594;7.138;2023-02-26T03:30:13;16.90;97.90
34008;DHT22;41085;51.594;7.138;2023-02-26T03:34:37;16.20;95.90
34008;DHT22;41085;51.594;7.138;2023-02-26T03:38:50;16.80;97.60
34008;DHT22;41085;51.594;7.138;2023-02-26T03:43:02;16.60;97.50
34008;DHT22;41085;51.594;7.138;2023-02-26T03:47:07;16.70;96.10
34008;DHT22;41085;51.594;7.138;2023-02-26T03:51:11;16.80;97.70
34008;DHT22;41085;51.594;7.138;2023-02-26T03:55:23;17.00;98.40
34008;DHT22;41085;51.594;7.138;2023-02-26T03:59:26;16.60;98.20
34008;DHT22;41085;51.594;7.138;2023-02-26T04:03:35;16.70;98.50
34008;DHT22;41085;51.594;7.138;2023-02-26T04:07:44;16.50;96.00
34008;DHT22;41085;51.594;7.138;2023-02-26T04:12:19;12.40;99.20
34008;DHT22;41085;51.594;7.138;2023-02-26T04:16:23;16.70;99.90
34008;DHT22;41085;51.594;7.138;2023-02-26T04:20:29;16.90;96.40
34008;DHT22;41085;51.594;7.138;2023-02-26T04:24:38;13.90;97.20
34008;DHT22;41085;51.594;7.138;2023-02-26T04:28:42;15.80;96.10
34008;DHT22;41085;51.594;7.138;2023-02-26T04:32:48;16.50;97.60
34008;DHT22;41085;51.594;7.138;2023-02-26T04:36:49;16.30;98.90
34008;DHT22;41085;51.594;7.138;2023-02-26T04:40:50;17.20;99.30
34008;DHT22;41085;51.594;7.138;2023-02-26T04:44:50;18.10;99.70
34008;DHT22;41085;51.594;7.138;2023-02-26T04:48:51;17.10;99.70
34008;DHT22;41085;51.594;7.138;2023-02-26T04:52:52;17.90;98.40
34008;DHT22;41085;51.594;7.138;2023-02-26T04:56:52;16.60;98.30
34008;DHT22;41085;51.594;7.138;2023-02-26T05:00:53;18.00;99.90
34008;DHT22;41085;51.594;7.138;2023-02-26T05:04:54;17.70;99.10
34008;DHT22;41085;51.594;7.138;2023-02-26T05:08:55;17.80;99.90
34008;DHT22;41085;51.594;7.138;2023-02-26T05:12:55;17.10;99.00
34008;DHT22;41085;51.594;7.138;2023-02-26T05:16:56;16.60;98.10
34008;DHT22;41085;51.594;7.138;2023-02-26T05:20:57;16.40;99.30
34008;DHT22;41085;51.594;7.138;2023-02-26T05:24:58;16.90;99.90
34008;DHT22;41085;51.594;7.138;2023-02-26T05:28:58;18.20;99.90
34008;DHT22;41085;51.594;7.138;2023-02-26T05:32:59;17.10;98.60
34008;DHT22;41085;51.594;7.138;2023-02-26T05:36:59;16.60;98.30
34008;DHT22;41085;51.594;7.138;2023-02-26T05:41:00;18.00;99.00
34008;DHT22;41085;51.594;7.138;2023-02-26T05:45:01;17.10;99.60
34008;DHT22;41085;51.594;7.138;2023-02-26T05:49:05;17.00;97.80
34008;DHT22;41085;51.594;7.138;2023-02-26T05:53:09;16.00;97.50
34008;DHT22;41085;51.594;7.138;2023-02-26T05:57:10;15.50;99.90
34008;DHT22;41085;51.594;7.138;2023-02-26T06:01:11;17.90;99.90
34008;DHT22;41085;51.594;7.138;2023-02-26T06:05:11;17.70;99.90
34008;DHT22;41085;51.594;7.138;2023-02-26T06:09:12;16.30;97.40
34008;DHT22;41085;51.594;7.138;2023-02-26T06:13:13;17.20;99.70
34008;DHT22;41085;51.594;7.138;2023-02-26T06:17:13;20.00;99.50
34008;DHT22;41085;51.594;7.138;2023-02-26T06:21:15;16.50;98.30
34008;DHT22;41085;51.594;7.138;2023-02-26T06:25:16;16.70;97.80
34008;DHT22;41085;51.594;7.138;2023-02-26T06:29:17;16.30;98.10
34008;DHT22;41085;51.594;7.138;2023-02-26T06:33:20;17.50;99.10
34008;DHT22;41085;51.594;7.138;2023-02-26T06:37:21;16.40;99.90
34008;DHT22;41085;51.594;7.138;2023-02-26T06:41:24;17.90;99.90
34008;DHT22;41085;51.594;7.138;2023-02-26T06:45:25;17.10;92.20
34008;DHT22;41085;51.594;7.138;2023-02-26T06:49:25;15.30;90.00
34008;DHT22;41085;51.594;7.138;2023-02-26T06:53:26;14.40;92.90
34008;DHT22;41085;51.594;7.138;2023-02-26T06:57:27;14.70;94.20
34008;DHT22;41085;51.594;7.138;2023-02-26T07:01:27;16.40;96.00
34008;DHT22;41085;51.594;7.138;2023-02-26T07:05:28;15.10;94.50
34008;DHT22;41085;51.594;7.138;2023-02-26T07:09:29;16.00;97.00
34008;DHT22;41085;51.594;7.138;2023-02-26T07:13:30;16.90;97.90
34008;DHT22;41085;51.594;7.138;2023-02-26T07:17:31;17.40;96.20
34008;DHT22;41085;51.594;7.138;2023-02-26T07:21:32;15.30;98.90
34008;DHT22;41085;51.594;7.138;2023-02-26T07:25:32;17.20;98.90
34008;DHT22;41085;51.594;7.138;2023-02-26T07:29:33;17.70;98.40
34008;DHT22;41085;51.594;7.138;2023-02-26T07:33:33;16.00;97.30
34008;DHT22;41085;51.594;7.138;2023-02-26T07:37:34;18.30;98.00
34008;DHT22;41085;51.594;7.138;2023-02-26T07:41:35;17.10;96.90
34008;DHT22;41085;51.594;7.138;2023-02-26T07:46:01;15.50;97.20
34008;DHT22;41085;51.594;7.138;2023-02-26T07:50:03;14.60;96.80
34008;DHT22;41085;51.594;7.138;2023-02-26T07:54:04;16.30;96.90
34008;DHT22;41085;51.594;7.138;2023-02-26T07:58:05;17.00;98.70
34008;DHT22;41085;51.594;7.138;2023-02-26T08:02:06;15.60;97.50
34008;DHT22;41085;51.594;7.138;2023-02-26T08:06:07;16.10;98.00
34008;DHT22;41085;51.594;7.138;2023-02-26T08:10:13;16.60;98.60
34008;DHT22;41085;51.594;7.138;2023-02-26T08:14:18;17.50;98.70
34008;DHT22;41085;51.594;7.138;2023-02-26T08:18:28;16.20;98.60
34008;DHT22;41085;51.594;7.138;2023-02-26T08:22:33;16.80;96.30
34008;DHT22;41085;51.594;7.138;2023-02-26T08:26:35;17.80;99.30
34008;DHT22;41085;51.594;7.138;2023-02-26T08:30:36;16.80;98.10
34008;DHT22;41085;51.594;7.138;2023-02-26T08:34:36;17.10;99.90
34008;DHT22;41085;51.594;7.138;2023-02-26T08:38:37;18.10;99.90
34008;DHT22;41085;51.594;7.138;2023-02-26T08:42:41;17.00;99.50
34008;DHT22;41085;51.594;7.138;2023-02-26T08:46:42;17.70;99.90
34008;DHT22;41085;51.594;7.138;2023-02-26T08:50:43;17.00;99.90
34008;DHT22;41085;51.594;7.138;2023-02-26T08:54:43;16.70;99.90
34008;DHT22;41085;51.594;7.138;2023-02-26T08:58:44;17.20;98.90
34008;DHT22;41085;51.594;7.138;2023-02-26T09:02:45;17.20;99.90
34008;DHT22;41085;51.594;7.138;2023-02-26T09:06:46;17.70;99.90
34008;DHT22;41085;51.594;7.138;2023-02-26T09:10:46;15.80;98.20
34008;DHT22;41085;51.594;7.138;2023-02-26T09:14:47;18.40;99.90
34008;DHT22;41085;51.594;7.138;2023-02-26T09:18:48;17.70;99.90
34008;DHT22;41085;51.594;7.138;2023-02-26T09:22:48;15.80;98.30
34008;DHT22;41085;51.594;7.138;2023-02-26T09:26:49;16.90;99.90
34008;DHT22;41085;51.594;7.138;2023-02-26T09:30:53;16.20;99.60
34008;DHT22;41085;51.594;7.138;2023-02-26T09:34:54;17.40;99.20
34008;DHT22;41085;51.594;7.138;2023-02-26T09:38:55;17.40;99.90
34008;DHT22;41085;51.594;7.138;2023-02-26T09:43:14;17.50;99.90
34008;DHT22;41085;51.594;7.138;2023-02-26T09:47:35;17.10;97.60
34008;DHT22;41085;51.594;7.138;2023-02-26T09:51:40;16.30;97.40
34008;DHT22;41085;51.594;7.138;2023-02-26T09:55:45;15.80;99.10
34008;DHT22;41085;51.594;7.138;2023-02-26T09:59:47;16.10;98.90
34008;DHT22;41085;51.594;7.138;2023-02-26T10:08:40;15.60;90.00
34008;DHT22;41085;51.594;7.138;2023-02-26T10:12:58;14.30;90.10
34008;DHT22;41085;51.594;7.138;2023-02-26T10:17:07;15.00;95.40
34008;DHT22;41085;51.594;7.138;2023-02-26T10:21:29;15.50;95.90
34008;DHT22;41085;51.594;7.138;2023-02-26T10:26:12;15.60;96.00
34008;DHT22;41085;51.594;7.138;2023-02-26T10:34:34;15.80;96.50
34008;DHT22;41085;51.594;7.138;2023-02-26T10:38:36;15.30;95.00
34008;DHT22;41085;51.594;7.138;2023-02-26T10:42:42;15.90;96.60
34008;DHT22;41085;51.594;7.138;2023-02-26T10:51:26;16.00;97.00
34008;DHT22;41085;51.594;7.138;2023-02-26T10:56:07;18.10;98.40
34008;DHT22;41085;51.594;7.138;2023-02-26T11:00:18;15.60;95.70
34008;DHT22;41085;51.594;7.138;2023-02-26T11:04:26;15.80;95.80
34008;DHT22;41085;51.594;7.138;2023-02-26T11:08:35;15.80;97.70
34008;DHT22;41085;51.594;7.138;2023-02-26T11:12:38;15.70;95.70
34008;DHT22;41085;51.594;7.138;2023-02-26T11:16:54;15.80;97.20
34008;DHT22;41085;51.594;7.138;2023-02-26T11:20:57;15.40;95.60
34008;DHT22;41085;51.594;7.138;2023-02-26T11:24:59;15.90;97.00
34008;DHT22;41085;51.594;7.138;2023-02-26T11:29:00;16.30;97.50
34008;DHT22;41085;51.594;7.138;2023-02-26T11:33:12;15.80;97.40
34008;DHT22;41085;51.594;7.138;2023-02-26T11:37:27;16.20;97.60
34008;DHT22;41085;51.594;7.138;2023-02-26T11:41:29;17.30;97.90
34008;DHT22;41085;51.594;7.138;2023-02-26T11:45:29;16.00;97.70
34008;DHT22;41085;51.594;7.138;2023-02-26T11:49:30;16.20;97.80
34008;DHT22;41085;51.594;7.138;2023-02-26T11:53:47;16.10;97.10
34008;DHT22;41085;51.594;7.138;2023-02-26T11:57:51;16.60;97.60
34008;DHT22;41085;51.594;7.138;2023-02-26T12:01:54;15.90;98.20
34008;DHT22;41085;51.594;7.138;2023-02-26T12:05:57;16.20;97.80
34008;DHT22;41085;51.594;7.138;2023-02-26T12:09:58;16.20;98.40
34008;DHT22;41085;51.594;7.138;2023-02-26T12:18:43;15.60;96.40
34008;DHT22;41085;51.594;7.138;2023-02-26T12:23:28;15.40;96.50
34008;DHT22;41085;51.594;7.138;2023-02-26T12:59:02;16.30;97.10
34008;DHT22;41085;51.594;7.138;2023-02-26T13:20:27;15.80;95.20
34008;DHT22;41085;51.594;7.138;2023-02-26T13:24:43;15.90;96.80
34008;DHT22;41085;51.594;7.138;2023-02-26T13:33:40;15.70;95.30
34008;DHT22;41085;51.594;7.138;2023-02-26T13:37:48;15.80;96.50
34008;DHT22;41085;51.594;7.138;2023-02-26T13:42:21;15.50;98.00
34008;DHT22;41085;51.594;7.138;2023-02-26T13:46:29;15.50;95.20
34008;DHT22;41085;51.594;7.138;2023-02-26T13:54:53;16.30;96.80
34008;DHT22;41085;51.594;7.138;2023-02-26T14:07:53;16.10;95.20
34008;DHT22;41085;51.594;7.138;2023-02-26T14:12:03;15.50;95.40
34008;DHT22;41085;51.594;7.138;2023-02-26T14:16:22;16.10;96.90
34008;DHT22;41085;51.594;7.138;2023-02-26T14:20:26;16.20;98.00
34008;DHT22;41085;51.594;7.138;2023-02-26T14:24:34;16.50;97.10
34008;DHT22;41085;51.594;7.138;2023-02-26T14:28:54;16.70;97.90
34008;DHT22;41085;51.594;7.138;2023-02-26T14:36:59;16.80;97.20
34008;DHT22;41085;51.594;7.138;2023-02-26T14:41:26;16.50;97.20
34008;DHT22;41085;51.594;7.138;2023-02-26T14:45:37;16.30;97.20
34008;DHT22;41085;51.594;7.138;2023-02-26T14:49:45;15.60;95.50
34008;DHT22;41085;51.594;7.138;2023-02-26T14:54:05;15.90;97.90
34008;DHT22;41085;51.594;7.138;2023-02-26T15:02:37;15.70;95.60
34008;DHT22;41085;51.594;7.138;2023-02-26T15:07:02;15.80;97.00
34008;DHT22;41085;51.594;7.138;2023-02-26T15:15:54;16.00;97.20
34008;DHT22;41085;51.594;7.138;2023-02-26T15:20:08;16.40;95.90
34008;DHT22;41085;51.594;7.138;2023-02-26T15:24:11;15.80;95.50
34008;DHT22;41085;51.594;7.138;2023-02-26T15:28:29;15.80;97.00
34008;DHT22;41085;51.594;7.138;2023-02-26T15:32:35;15.80;95.70
34008;DHT22;41085;51.594;7.138;2023-02-26T15:36:43;17.30;97.50
34008;DHT22;41085;51.594;7.138;2023-02-26T15:40:44;15.90;96.70
34008;DHT22;41085;51.594;7.138;2023-02-26T15:44:44;16.00;97.00
34008;DHT22;41085;51.594;7.138;2023-02-26T15:48:46;16.30;96.90
34008;DHT22;41085;51.594;7.138;2023-02-26T15:52:51;16.30;97.00
34008;DHT22;41085;51.594;7.138;2023-02-26T15:56:53;15.90;97.00
34008;DHT22;41085;51.594;7.138;2023-02-26T16:00:54;19.80;98.10
34008;DHT22;41085;51.594;7.138;2023-02-26T16:04:55;16.10;97.60
34008;DHT22;41085;51.594;7.138;2023-02-26T16:08:56;16.40;97.10
34008;DHT22;41085;51.594;7.138;2023-02-26T16:12:58;16.30;97.00
34008;DHT22;41085;51.594;7.138;2023-02-26T16:16:59;16.20;97.30
34008;DHT22;41085;51.594;7.138;2023-02-26T16:21:02;15.90;96.90
34008;DHT22;41085;51.594;7.138;2023-02-26T16:25:16;15.70;96.70
34008;DHT22;41085;51.594;7.138;2023-02-26T16:29:22;16.30;97.10
34008;DHT22;41085;51.594;7.138;2023-02-26T16:33:24;15.80;97.00
34008;DHT22;41085;51.594;7.138;2023-02-26T16:37:32;16.30;97.10
34008;DHT22;41085;51.594;7.138;2023-02-26T16:41:35;16.30;97.10
34008;DHT22;41085;51.594;7.138;2023-02-26T16:49:38;15.80;96.90
34008;DHT22;41085;51.594;7.138;2023-02-26T16:53:46;15.70;97.00
34008;DHT22;41085;51.594;7.138;2023-02-26T16:57:48;15.50;97.20
34008;DHT22;41085;51.594;7.138;2023-02-26T17:01:54;17.10;97.30
34008;DHT22;41085;51.594;7.138;2023-02-26T17:06:10;15.60;97.00
34008;DHT22;41085;51.594;7.138;2023-02-26T17:10:28;15.70;95.50
34008;DHT22;41085;51.594;7.138;2023-02-26T17:14:32;15.60;96.70
34008;DHT22;41085;51.594;7.138;2023-02-26T17:18:36;16.00;97.00
34008;DHT22;41085;51.594;7.138;2023-02-26T17:22:37;15.80;98.10
34008;DHT22;41085;51.594;7.138;2023-02-26T17:26:38;15.80;97.70
34008;DHT22;41085;51.594;7.138;2023-02-26T17:30:39;15.70;97.00
34008;DHT22;41085;51.594;7.138;2023-02-26T17:34:39;16.20;97.10
34008;DHT22;41085;51.594;7.138;2023-02-26T17:38:40;16.60;97.20
34008;DHT22;41085;51.594;7.138;2023-02-26T17:42:46;15.70;97.00
34008;DHT22;41085;51.594;7.138;2023-02-26T17:46:47;15.80;97.10
34008;DHT22;41085;51.594;7.138;2023-02-26T17:50:53;16.10;97.20
34008;DHT22;41085;51.594;7.138;2023-02-26T17:54:54;15.90;97.90
34008;DHT22;41085;51.594;7.138;2023-02-26T17:58:56;16.00;97.10
34008;DHT22;41085;51.594;7.138;2023-02-26T18:02:57;15.80;98.00
34008;DHT22;41085;51.594;7.138;2023-02-26T18:06:57;14.50;96.70
34008;DHT22;41085;51.594;7.138;2023-02-26T18:10:59;16.70;97.30
34008;DHT22;41085;51.594;7.138;2023-02-26T18:15:00;15.60;98.00
34008;DHT22;41085;51.594;7.138;2023-02-26T18:19:02;15.70;97.10
34008;DHT22;41085;51.594;7.138;2023-02-26T18:23:03;15.50;97.00
34008;DHT22;41085;51.594;7.138;2023-02-26T18:27:10;15.70;97.10
34008;DHT22;41085;51.594;7.138;2023-02-26T18:31:12;16.20;97.30
34008;DHT22;41085;51.594;7.138;2023-02-26T18:35:13;16.80;97.40
34008;DHT22;41085;51.594;7.138;2023-02-26T18:39:15;15.60;97.10
34008;DHT22;41085;51.594;7.138;2023-02-26T18:43:16;15.90;97.20
34008;DHT22;41085;51.594;7.138;2023-02-26T18:47:19;15.90;97.30
34008;DHT22;41085;51.594;7.138;2023-02-26T18:51:20;16.90;97.50
34008;DHT22;41085;51.594;7.138;2023-02-26T18:55:21;15.80;97.30
34008;DHT22;41085;51.594;7.138;2023-02-26T18:59:22;14.00;97.30
34008;DHT22;41085;51.594;7.138;2023-02-26T19:03:24;15.80;97.20
34008;DHT22;41085;51.594;7.138;2023-02-26T19:07:25;16.00;97.80
34008;DHT22;41085;51.594;7.138;2023-02-26T19:11:25;16.40;97.30
34008;DHT22;41085;51.594;7.138;2023-02-26T19:15:26;15.80;97.10
34008;DHT22;41085;51.594;7.138;2023-02-26T19:19:26;15.60;97.00
34008;DHT22;41085;51.594;7.138;2023-02-26T19:23:27;15.80;97.20
34008;DHT22;41085;51.594;7.138;2023-02-26T19:27:27;15.70;97.10
34008;DHT22;41085;51.594;7.138;2023-02-26T19:31:28;15.60;97.10
34008;DHT22;41085;51.594;7.138;2023-02-26T19:35:29;15.70;97.10
34008;DHT22;41085;51.594;7.138;2023-02-26T19:39:30;15.90;97.10
34008;DHT22;41085;51.594;7.138;2023-02-26T19:43:30;15.30;96.90
34008;DHT22;41085;51.594;7.138;2023-02-26T19:47:31;15.60;97.10
34008;DHT22;41085;51.594;7.138;2023-02-26T19:51:32;15.30;97.00
34008;DHT22;41085;51.594;7.138;2023-02-26T19:55:32;15.80;97.30
34008;DHT22;41085;51.594;7.138;2023-02-26T19:59:33;16.50;97.40
34008;DHT22;41085;51.594;7.138;2023-02-26T20:03:33;16.10;97.30
34008;DHT22;41085;51.594;7.138;2023-02-26T20:07:34;16.10;97.20
34008;DHT22;41085;51.594;7.138;2023-02-26T20:11:35;16.00;97.10
34008;DHT22;41085;51.594;7.138;2023-02-26T20:15:38;16.60;97.40
34008;DHT22;41085;51.594;7.138;2023-02-26T20:19:38;15.80;97.10
34008;DHT22;41085;51.594;7.138;2023-02-26T20:23:39;15.80;97.20
34008;DHT22;41085;51.594;7.138;2023-02-26T20:27:40;16.00;97.30
34008;DHT22;41085;51.594;7.138;2023-02-26T20:31:41;16.50;97.20
34008;DHT22;41085;51.594;7.138;2023-02-26T20:35:44;16.30;97.20
34008;DHT22;41085;51.594;7.138;2023-02-26T20:39:45;16.10;97.10
34008;DHT22;41085;51.594;7.138;2023-02-26T20:43:46;16.90;97.50
34008;DHT22;41085;51.594;7.138;2023-02-26T20:47:46;16.70;97.40
34008;DHT22;41085;51.594;7.138;2023-02-26T20:51:48;16.10;98.10
34008;DHT22;41085;51.594;7.138;2023-02-26T20:55:49;15.30;96.90
34008;DHT22;41085;51.594;7.138;2023-02-26T20:59:50;15.40;97.00
34008;DHT22;41085;51.594;7.138;2023-02-26T21:03:50;15.60;93.70
34008;DHT22;41085;51.594;7.138;2023-02-26T21:07:53;13.80;79.40
34008;DHT22;41085;51.594;7.138;2023-02-26T21:11:54;16.00;82.60
34008;DHT22;41085;51.594;7.138;2023-02-26T21:15:59;13.60;90.50
34008;DHT22;41085;51.594;7.138;2023-02-26T21:20:01;17.10;93.00
34008;DHT22;41085;51.594;7.138;2023-02-26T21:24:05;15.40;92.70
34008;DHT22;41085;51.594;7.138;2023-02-26T21:28:05;15.20;92.70
34008;DHT22;41085;51.594;7.138;2023-02-26T21:32:06;15.70;93.50
34008;DHT22;41085;51.594;7.138;2023-02-26T21:36:07;15.70;93.00
34008;DHT22;41085;51.594;7.138;2023-02-26T21:40:10;15.80;92.90
34008;DHT22;41085;51.594;7.138;2023-02-26T21:44:11;15.50;93.10
34008;DHT22;41085;51.594;7.138;2023-02-26T21:52:27;15.70;93.80
34008;DHT22;41085;51.594;7.138;2023-02-26T21:56:52;18.10;93.50
34008;DHT22;41085;51.594;7.138;2023-02-26T22:01:06;16.30;93.30
34008;DHT22;41085;51.594;7.138;2023-02-26T22:09:15;15.90;94.00
34008;DHT22;41085;51.594;7.138;2023-02-26T22:13:18;16.20;95.20
34008;DHT22;41085;51.594;7.138;2023-02-26T22:17:36;15.90;94.80
34008;DHT22;41085;51.594;7.138;2023-02-26T22:21:47;17.40;93.60
34008;DHT22;41085;51.594;7.138;2023-02-26T22:26:02;15.80;94.70
34008;DHT22;41085;51.594;7.138;2023-02-26T22:30:39;16.90;93.90
34008;DHT22;41085;51.594;7.138;2023-02-26T22:34:40;15.90;94.20
34008;DHT22;41085;51.594;7.138;2023-02-26T22:43:57;16.50;93.00
34008;DHT22;41085;51.594;7.138;2023-02-26T22:47:57;17.40;94.90
34008;DHT22;41085;51.594;7.138;2023-02-26T22:51:58;16.10;94.60
34008;DHT22;41085;51.594;7.138;2023-02-26T22:55:59;16.90;94.90
34008;DHT22;41085;51.594;7.138;2023-02-26T23:00:00;17.80;95.10
34008;DHT22;41085;51.594;7.138;2023-02-26T23:04:06;16.40;94.80
34008;DHT22;41085;51.594;7.138;2023-02-26T23:08:07;16.80;95.00
34008;DHT22;41085;51.594;7.138;2023-02-26T23:12:08;16.10;94.90
34008;DHT22;41085;51.594;7.138;2023-02-26T23:16:10;15.80;95.30
34008;DHT22;41085;51.594;7.138;2023-02-26T23:20:23;16.10;96.10
34008;DHT22;41085;51.594;7.138;2023-02-26T23:24:25;17.00;96.10
34008;DHT22;41085;51.594;7.138;2023-02-26T23:28:29;16.40;96.00
34008;DHT22;41085;51.594;7.138;2023-02-26T23:32:29;16.90;96.20
34008;DHT22;41085;51.594;7.138;2023-02-26T23:36:30;16.90;96.30
34008;DHT22;41085;51.594;7.138;2023-02-26T23:40:31;16.40;96.60
34008;DHT22;41085;51.594;7.138;2023-02-26T23:44:32;16.60;96.70
34008;DHT22;41085;51.594;7.138;2023-02-26T23:48:38;16.20;96.80
34008;DHT22;41085;51.594;7.138;2023-02-26T23:52:39;16.60;96.90
34008;DHT22;41085;51.594;7.138;2023-02-26T23:56:40;16.20;96.90
